sensor_id;sensor_type;location;lat;lon;timestamp;temperature;humidity
4002;DHT22;2015;48.670;9.060;2023-01-23T00:01:20;0.40;99.90
4002;DHT22;2015;48.670;9.060;2023-01-23T00:03:55;0.50;99.90
4002;DHT22;2015;48.670;9.060;2023-01-23T00:06:28;0.40;99.90
4002;DHT22;2015;48.670;9.060;2023-01-23T00:09:00;0.40;99.90
4002;DHT22;2015;48.670;9.060;2023-01-23T00:11:32;0.40;99.90
4002;DHT22;2015;48.670;9.060;2023-01-23T00:14:04;0.40;99.90
4002;DHT22;2015;48.670;9.060;2023-01-23T00:16:36;0.40;99.90
4002;DHT22;2015;48.670;9.060;2023-01-23T00:19:09;0.40;99.90
4002;DHT22;2015;48.670;9.060;2023-01-23T00:21:41;0.40;99.90
4002;DHT22;2015;48.670;9.060;2023-01-23T00:24:13;0.40;99.90
4002;DHT22;2015;48.670;9.060;2023-01-23T00:26:44;0.40;99.90
4002;DHT22;2015;48.670;9.060;2023-01-23T00:29:16;0.30;99.90
4002;DHT22;2015;48.670;9.060;2023-01-23T00:31:48;0.20;99.90
4002;DHT22;2015;48.670;9.060;2023-01-23T00:34:19;0.20;99.90
4002;DHT22;2015;48.670;9.060;2023-01-23T00:36:51;0.20;99.90
4002;DHT22;2015;48.670;9.060;2023-01-23T00:39:23;0.10;99.90
4002;DHT22;2015;48.670;9.060;2023-01-23T00:41:55;0.00;99.90
4002;DHT22;2015;48.670;9.060;2023-01-23T00:44:27;0.00;99.90
4002;DHT22;2015;48.670;9.060;2023-01-23T00:46:59;-0.10;99.90
4002;DHT22;2015;48.670;9.060;2023-01-23T00:49:31;-0.10;99.90
4002;DHT22;2015;48.670;9.060;2023-01-23T00:52:03;0.00;99.90
4002;DHT22;2015;48.670;9.060;2023-01-23T00:54:34;0.00;99.90
4002;DHT22;2015;48.670;9.060;2023-01-23T00:57:08;0.00;99.90
4002;DHT22;2015;48.670;9.060;2023-01-23T00:59:40;0.10;99.90
4002;DHT22;2015;48.670;9.060;2023-01-23T01:02:12;0.10;99.90
4002;DHT22;2015;48.670;9.060;2023-01-23T01:04:43;0.10;99.90
4002;DHT22;2015;48.670;9.060;2023-01-23T01:07:15;0.10;99.90
4002;DHT22;2015;48.670;9.060;2023-01-23T01:09:47;0.10;99.90
4002;DHT22;2015;48.670;9.060;2023-01-23T01:12:19;0.20;99.90
4002;DHT22;2015;48.670;9.060;2023-01-23T01:14:51;0.20;99.90
4002;DHT22;2015;48.670;9.060;2023-01-23T01:17:23;0.20;99.90
4002;DHT22;2015;48.670;9.060;2023-01-23T01:19:54;0.20;99.90
4002;DHT22;2015;48.670;9.060;2023-01-23T01:22:26;0.30;99.90
4002;DHT22;2015;48.670;9.060;2023-01-23T01:24:58;0.30;99.90
4002;DHT22;2015;48.670;9.060;2023-01-23T01:27:30;0.30;99.90
4002;DHT22;2015;48.670;9.060;2023-01-23T01:30:02;0.30;99.90
4002;DHT22;2015;48.670;9.060;2023-01-23T01:32:38;0.30;99.90
4002;DHT22;2015;48.670;9.060;2023-01-23T01:35:10;0.30;99.90
4002;DHT22;2015;48.670;9.060;2023-01-23T01:37:42;0.30;99.90
4002;DHT22;2015;48.670;9.060;2023-01-23T01:40:33;0.30;99.90
4002;DHT22;2015;48.670;9.060;2023-01-23T01:43:14;0.30;99.90
4002;DHT22;2015;48.670;9.060;2023-01-23T01:46:11;0.30;99.90
4002;DHT22;2015;48.670;9.060;2023-01-23T01:54:02;0.30;99.90
4002;DHT22;2015;48.670;9.060;2023-01-23T01:56:40;0.30;99.90
4002;DHT22;2015;48.670;9.060;2023-01-23T01:59:12;0.40;99.90
4002;DHT22;2015;48.670;9.060;2023-01-23T02:01:46;0.40;99.90
4002;DHT22;2015;48.670;9.060;2023-01-23T02:04:21;0.40;99.90
4002;DHT22;2015;48.670;9.060;2023-01-23T02:06:53;0.40;99.90
4002;DHT22;2015;48.670;9.060;2023-01-23T02:09:26;0.30;99.90
4002;DHT22;2015;48.670;9.060;2023-01-23T02:11:59;0.30;99.90
4002;DHT22;2015;48.670;9.060;2023-01-23T02:14:32;0.30;99.90
4002;DHT22;2015;48.670;9.060;2023-01-23T02:17:03;0.40;99.90
4002;DHT22;2015;48.670;9.060;2023-01-23T02:19:44;0.40;99.90
4002;DHT22;2015;48.670;9.060;2023-01-23T02:22:33;0.40;99.90
4002;DHT22;2015;48.670;9.060;2023-01-23T02:27:57;0.30;99.90
4002;DHT22;2015;48.670;9.060;2023-01-23T02:30:29;0.40;99.90
4002;DHT22;2015;48.670;9.060;2023-01-23T02:36:04;0.30;99.90
4002;DHT22;2015;48.670;9.060;2023-01-23T02:38:43;0.30;99.90
4002;DHT22;2015;48.670;9.060;2023-01-23T02:41:17;0.30;99.90
4002;DHT22;2015;48.670;9.060;2023-01-23T02:43:53;0.30;99.90
4002;DHT22;2015;48.670;9.060;2023-01-23T02:46:26;0.30;99.90
4002;DHT22;2015;48.670;9.060;2023-01-23T02:48:58;0.30;99.90
4002;DHT22;2015;48.670;9.060;2023-01-23T02:51:29;0.30;99.90
4002;DHT22;2015;48.670;9.060;2023-01-23T02:54:03;0.30;99.90
4002;DHT22;2015;48.670;9.060;2023-01-23T02:56:35;0.30;99.90
4002;DHT22;2015;48.670;9.060;2023-01-23T02:59:07;0.30;99.90
4002;DHT22;2015;48.670;9.060;2023-01-23T03:01:58;0.30;99.90
4002;DHT22;2015;48.670;9.060;2023-01-23T03:04:31;0.30;99.90
4002;DHT22;2015;48.670;9.060;2023-01-23T03:07:02;0.30;99.90
4002;DHT22;2015;48.670;9.060;2023-01-23T03:09:34;0.30;99.90
4002;DHT22;2015;48.670;9.060;2023-01-23T03:12:07;0.30;99.90
4002;DHT22;2015;48.670;9.060;2023-01-23T03:14:40;0.30;99.90
4002;DHT22;2015;48.670;9.060;2023-01-23T03:17:11;0.30;99.90
4002;DHT22;2015;48.670;9.060;2023-01-23T03:19:45;0.30;99.90
4002;DHT22;2015;48.670;9.060;2023-01-23T03:22:17;0.30;99.90
4002;DHT22;2015;48.670;9.060;2023-01-23T03:24:49;0.30;99.90
4002;DHT22;2015;48.670;9.060;2023-01-23T03:27:20;0.30;99.90
4002;DHT22;2015;48.670;9.060;2023-01-23T03:29:52;0.30;99.90
4002;DHT22;2015;48.670;9.060;2023-01-23T03:32:43;0.30;99.90
4002;DHT22;2015;48.670;9.060;2023-01-23T03:35:16;0.30;99.90
4002;DHT22;2015;48.670;9.060;2023-01-23T03:37:50;0.30;99.90
4002;DHT22;2015;48.670;9.060;2023-01-23T03:40:23;0.30;99.90
4002;DHT22;2015;48.670;9.060;2023-01-23T03:43:14;0.30;99.90
4002;DHT22;2015;48.670;9.060;2023-01-23T03:45:45;0.30;99.90
4002;DHT22;2015;48.670;9.060;2023-01-23T03:48:17;0.30;99.90
4002;DHT22;2015;48.670;9.060;2023-01-23T03:50:49;0.30;99.90
4002;DHT22;2015;48.670;9.060;2023-01-23T03:53:21;0.30;99.90
4002;DHT22;2015;48.670;9.060;2023-01-23T03:55:53;0.30;99.90
4002;DHT22;2015;48.670;9.060;2023-01-23T03:58:25;0.20;99.90
4002;DHT22;2015;48.670;9.060;2023-01-23T04:00:57;0.20;99.90
4002;DHT22;2015;48.670;9.060;2023-01-23T04:03:29;0.30;99.90
4002;DHT22;2015;48.670;9.060;2023-01-23T04:06:01;0.30;99.90
4002;DHT22;2015;48.670;9.060;2023-01-23T04:08:33;0.30;99.90
4002;DHT22;2015;48.670;9.060;2023-01-23T04:11:07;0.20;99.90
4002;DHT22;2015;48.670;9.060;2023-01-23T04:13:39;0.30;99.90
4002;DHT22;2015;48.670;9.060;2023-01-23T04:16:12;0.20;99.90
4002;DHT22;2015;48.670;9.060;2023-01-23T04:18:44;0.30;99.90
4002;DHT22;2015;48.670;9.060;2023-01-23T04:21:16;0.30;99.90
4002;DHT22;2015;48.670;9.060;2023-01-23T04:23:47;0.30;99.90
4002;DHT22;2015;48.670;9.060;2023-01-23T04:26:19;0.30;99.90
4002;DHT22;2015;48.670;9.060;2023-01-23T04:28:51;0.30;99.90
4002;DHT22;2015;48.670;9.060;2023-01-23T04:31:23;0.30;99.90
4002;DHT22;2015;48.670;9.060;2023-01-23T04:33:55;0.20;99.90
4002;DHT22;2015;48.670;9.060;2023-01-23T04:36:26;0.20;99.90
4002;DHT22;2015;48.670;9.060;2023-01-23T04:38:58;0.20;99.90
4002;DHT22;2015;48.670;9.060;2023-01-23T04:41:31;0.30;99.90
4002;DHT22;2015;48.670;9.060;2023-01-23T04:44:03;0.20;99.90
4002;DHT22;2015;48.670;9.060;2023-01-23T04:46:53;0.20;99.90
4002;DHT22;2015;48.670;9.060;2023-01-23T04:49:25;0.20;99.90
4002;DHT22;2015;48.670;9.060;2023-01-23T04:51:57;0.30;99.90
4002;DHT22;2015;48.670;9.060;2023-01-23T04:54:29;0.30;99.90
4002;DHT22;2015;48.670;9.060;2023-01-23T04:57:01;0.30;99.90
4002;DHT22;2015;48.670;9.060;2023-01-23T04:59:33;0.30;99.90
4002;DHT22;2015;48.670;9.060;2023-01-23T05:02:04;0.40;99.90
4002;DHT22;2015;48.670;9.060;2023-01-23T05:04:37;0.40;99.90
4002;DHT22;2015;48.670;9.060;2023-01-23T05:07:09;0.40;99.90
4002;DHT22;2015;48.670;9.060;2023-01-23T05:09:42;0.40;99.90
4002;DHT22;2015;48.670;9.060;2023-01-23T05:12:14;0.40;99.90
4002;DHT22;2015;48.670;9.060;2023-01-23T05:14:46;0.40;99.90
4002;DHT22;2015;48.670;9.060;2023-01-23T05:17:17;0.30;99.90
4002;DHT22;2015;48.670;9.060;2023-01-23T05:19:49;0.30;99.90
4002;DHT22;2015;48.670;9.060;2023-01-23T05:22:21;0.30;99.90
4002;DHT22;2015;48.670;9.060;2023-01-23T05:24:53;0.30;99.90
4002;DHT22;2015;48.670;9.060;2023-01-23T05:27:25;0.30;99.90
4002;DHT22;2015;48.670;9.060;2023-01-23T05:29:57;0.30;99.90
4002;DHT22;2015;48.670;9.060;2023-01-23T05:32:28;0.30;99.90
4002;DHT22;2015;48.670;9.060;2023-01-23T05:35:00;0.30;99.90
4002;DHT22;2015;48.670;9.060;2023-01-23T05:37:32;0.40;99.90
4002;DHT22;2015;48.670;9.060;2023-01-23T05:40:05;0.30;99.90
4002;DHT22;2015;48.670;9.060;2023-01-23T05:42:39;0.40;99.90
4002;DHT22;2015;48.670;9.060;2023-01-23T05:45:11;0.30;99.90
4002;DHT22;2015;48.670;9.060;2023-01-23T05:47:43;0.30;99.90
4002;DHT22;2015;48.670;9.060;2023-01-23T05:50:18;0.30;99.90
4002;DHT22;2015;48.670;9.060;2023-01-23T05:52:51;0.30;99.90
4002;DHT22;2015;48.670;9.060;2023-01-23T05:55:23;0.30;99.90
4002;DHT22;2015;48.670;9.060;2023-01-23T05:57:54;0.30;99.90
4002;DHT22;2015;48.670;9.060;2023-01-23T06:00:26;0.30;99.90
4002;DHT22;2015;48.670;9.060;2023-01-23T06:02:58;0.30;99.90
4002;DHT22;2015;48.670;9.060;2023-01-23T06:05:30;0.20;99.90
4002;DHT22;2015;48.670;9.060;2023-01-23T06:08:01;0.20;99.90
4002;DHT22;2015;48.670;9.060;2023-01-23T06:10:35;0.20;99.90
4002;DHT22;2015;48.670;9.060;2023-01-23T06:13:08;0.20;99.90
4002;DHT22;2015;48.670;9.060;2023-01-23T06:15:41;0.30;99.90
4002;DHT22;2015;48.670;9.060;2023-01-23T06:18:12;0.30;99.90
4002;DHT22;2015;48.670;9.060;2023-01-23T06:20:45;0.30;99.90
4002;DHT22;2015;48.670;9.060;2023-01-23T06:23:16;0.40;99.90
4002;DHT22;2015;48.670;9.060;2023-01-23T06:25:48;0.40;99.90
4002;DHT22;2015;48.670;9.060;2023-01-23T06:28:20;0.40;99.90
4002;DHT22;2015;48.670;9.060;2023-01-23T06:30:52;0.40;99.90
4002;DHT22;2015;48.670;9.060;2023-01-23T06:33:24;0.40;99.90
4002;DHT22;2015;48.670;9.060;2023-01-23T06:36:01;0.40;99.90
4002;DHT22;2015;48.670;9.060;2023-01-23T06:38:33;0.40;99.90
4002;DHT22;2015;48.670;9.060;2023-01-23T06:41:05;0.40;99.90
4002;DHT22;2015;48.670;9.060;2023-01-23T06:43:36;0.40;99.90
4002;DHT22;2015;48.670;9.060;2023-01-23T06:46:09;0.40;99.90
4002;DHT22;2015;48.670;9.060;2023-01-23T06:48:42;0.30;99.90
4002;DHT22;2015;48.670;9.060;2023-01-23T06:51:13;0.30;99.90
4002;DHT22;2015;48.670;9.060;2023-01-23T06:53:45;0.30;99.90
4002;DHT22;2015;48.670;9.060;2023-01-23T06:56:17;0.20;99.90
4002;DHT22;2015;48.670;9.060;2023-01-23T06:58:49;0.20;99.90
4002;DHT22;2015;48.670;9.060;2023-01-23T07:01:21;0.20;99.90
4002;DHT22;2015;48.670;9.060;2023-01-23T07:03:52;0.10;99.90
4002;DHT22;2015;48.670;9.060;2023-01-23T07:06:24;0.10;99.90
4002;DHT22;2015;48.670;9.060;2023-01-23T07:08:56;0.10;99.90
4002;DHT22;2015;48.670;9.060;2023-01-23T07:11:28;0.20;99.90
4002;DHT22;2015;48.670;9.060;2023-01-23T07:14:00;0.20;99.90
4002;DHT22;2015;48.670;9.060;2023-01-23T07:16:31;0.20;99.90
4002;DHT22;2015;48.670;9.060;2023-01-23T07:19:05;0.30;99.90
4002;DHT22;2015;48.670;9.060;2023-01-23T07:21:37;0.30;99.90
4002;DHT22;2015;48.670;9.060;2023-01-23T07:24:09;0.30;99.90
4002;DHT22;2015;48.670;9.060;2023-01-23T07:26:41;0.20;99.90
4002;DHT22;2015;48.670;9.060;2023-01-23T07:29:13;0.30;99.90
4002;DHT22;2015;48.670;9.060;2023-01-23T07:31:44;0.20;99.90
4002;DHT22;2015;48.670;9.060;2023-01-23T07:34:16;0.20;99.90
4002;DHT22;2015;48.670;9.060;2023-01-23T07:36:48;0.20;99.90
4002;DHT22;2015;48.670;9.060;2023-01-23T07:39:20;0.10;99.90
4002;DHT22;2015;48.670;9.060;2023-01-23T07:41:51;0.10;99.90
4002;DHT22;2015;48.670;9.060;2023-01-23T07:44:23;0.10;99.90
4002;DHT22;2015;48.670;9.060;2023-01-23T07:46:55;0.10;99.90
4002;DHT22;2015;48.670;9.060;2023-01-23T07:49:27;0.20;99.90
4002;DHT22;2015;48.670;9.060;2023-01-23T07:52:00;0.20;99.90
4002;DHT22;2015;48.670;9.060;2023-01-23T07:54:32;0.20;99.90
4002;DHT22;2015;48.670;9.060;2023-01-23T07:57:03;0.20;99.90
4002;DHT22;2015;48.670;9.060;2023-01-23T07:59:35;0.20;99.90
4002;DHT22;2015;48.670;9.060;2023-01-23T08:02:09;0.30;99.90
4002;DHT22;2015;48.670;9.060;2023-01-23T08:04:41;0.30;99.90
4002;DHT22;2015;48.670;9.060;2023-01-23T08:07:13;0.40;99.90
4002;DHT22;2015;48.670;9.060;2023-01-23T08:09:44;0.30;99.90
4002;DHT22;2015;48.670;9.060;2023-01-23T08:12:16;0.30;99.90
4002;DHT22;2015;48.670;9.060;2023-01-23T08:14:48;0.30;99.90
4002;DHT22;2015;48.670;9.060;2023-01-23T08:17:20;0.30;99.90
4002;DHT22;2015;48.670;9.060;2023-01-23T08:19:51;0.40;99.90
4002;DHT22;2015;48.670;9.060;2023-01-23T08:22:23;0.40;99.90
4002;DHT22;2015;48.670;9.060;2023-01-23T08:24:55;0.30;99.90
4002;DHT22;2015;48.670;9.060;2023-01-23T08:27:27;0.30;99.90
4002;DHT22;2015;48.670;9.060;2023-01-23T08:29:58;0.40;99.90
4002;DHT22;2015;48.670;9.060;2023-01-23T08:32:30;0.40;99.90
4002;DHT22;2015;48.670;9.060;2023-01-23T08:35:02;0.50;99.90
4002;DHT22;2015;48.670;9.060;2023-01-23T08:37:35;0.50;99.90
4002;DHT22;2015;48.670;9.060;2023-01-23T08:40:07;0.50;99.90
4002;DHT22;2015;48.670;9.060;2023-01-23T08:42:39;0.50;99.90
4002;DHT22;2015;48.670;9.060;2023-01-23T08:45:11;0.50;99.90
4002;DHT22;2015;48.670;9.060;2023-01-23T08:47:43;0.60;99.90
4002;DHT22;2015;48.670;9.060;2023-01-23T08:50:15;0.70;99.90
4002;DHT22;2015;48.670;9.060;2023-01-23T08:52:47;0.70;99.90
4002;DHT22;2015;48.670;9.060;2023-01-23T08:55:18;0.70;99.90
4002;DHT22;2015;48.670;9.060;2023-01-23T08:57:50;0.80;99.90
4002;DHT22;2015;48.670;9.060;2023-01-23T09:00:22;0.80;99.90
4002;DHT22;2015;48.670;9.060;2023-01-23T09:02:54;0.70;99.90
4002;DHT22;2015;48.670;9.060;2023-01-23T09:05:27;0.80;99.90
4002;DHT22;2015;48.670;9.060;2023-01-23T09:07:59;0.90;99.90
4002;DHT22;2015;48.670;9.060;2023-01-23T09:10:31;0.80;99.90
4002;DHT22;2015;48.670;9.060;2023-01-23T09:13:03;0.80;99.90
4002;DHT22;2015;48.670;9.060;2023-01-23T09:15:39;0.90;99.90
4002;DHT22;2015;48.670;9.060;2023-01-23T09:18:10;0.90;99.90
4002;DHT22;2015;48.670;9.060;2023-01-23T09:20:42;1.00;99.90
4002;DHT22;2015;48.670;9.060;2023-01-23T09:23:14;1.00;99.90
4002;DHT22;2015;48.670;9.060;2023-01-23T09:25:46;1.00;99.90
4002;DHT22;2015;48.670;9.060;2023-01-23T09:28:18;0.90;99.90
4002;DHT22;2015;48.670;9.060;2023-01-23T09:30:49;1.00;99.90
4002;DHT22;2015;48.670;9.060;2023-01-23T09:33:21;1.10;99.90
4002;DHT22;2015;48.670;9.060;2023-01-23T09:35:57;1.10;99.90
4002;DHT22;2015;48.670;9.060;2023-01-23T09:38:29;1.10;99.90
4002;DHT22;2015;48.670;9.060;2023-01-23T09:41:17;1.10;99.90
4002;DHT22;2015;48.670;9.060;2023-01-23T09:44:04;1.10;99.90
4002;DHT22;2015;48.670;9.060;2023-01-23T09:46:58;1.00;99.90
4002;DHT22;2015;48.670;9.060;2023-01-23T09:52:30;0.90;99.90
4002;DHT22;2015;48.670;9.060;2023-01-23T09:57:48;0.80;99.90
4002;DHT22;2015;48.670;9.060;2023-01-23T10:00:30;0.90;99.90
4002;DHT22;2015;48.670;9.060;2023-01-23T10:03:10;0.90;99.90
4002;DHT22;2015;48.670;9.060;2023-01-23T10:08:53;0.90;99.90
4002;DHT22;2015;48.670;9.060;2023-01-23T10:14:41;0.90;99.90
4002;DHT22;2015;48.670;9.060;2023-01-23T10:20:02;1.00;99.90
4002;DHT22;2015;48.670;9.060;2023-01-23T10:23:13;1.10;99.90
4002;DHT22;2015;48.670;9.060;2023-01-23T10:25:41;1.20;99.90
4002;DHT22;2015;48.670;9.060;2023-01-23T10:28:35;1.40;99.90
4002;DHT22;2015;48.670;9.060;2023-01-23T10:31:24;1.60;99.90
4002;DHT22;2015;48.670;9.060;2023-01-23T10:40:10;1.20;99.90
4002;DHT22;2015;48.670;9.060;2023-01-23T10:42:42;1.30;99.90
4002;DHT22;2015;48.670;9.060;2023-01-23T10:45:18;1.40;99.90
4002;DHT22;2015;48.670;9.060;2023-01-23T10:47:52;1.60;99.90
4002;DHT22;2015;48.670;9.060;2023-01-23T10:50:36;1.50;99.90
4002;DHT22;2015;48.670;9.060;2023-01-23T10:53:19;1.40;99.90
4002;DHT22;2015;48.670;9.060;2023-01-23T10:55:54;1.20;99.90
4002;DHT22;2015;48.670;9.060;2023-01-23T10:58:38;1.10;99.90
4002;DHT22;2015;48.670;9.060;2023-01-23T11:01:26;1.20;99.90
4002;DHT22;2015;48.670;9.060;2023-01-23T11:04:18;1.20;99.90
4002;DHT22;2015;48.670;9.060;2023-01-23T11:07:13;1.20;99.90
4002;DHT22;2015;48.670;9.060;2023-01-23T11:12:32;1.20;99.90
4002;DHT22;2015;48.670;9.060;2023-01-23T11:15:24;1.30;99.90
4002;DHT22;2015;48.670;9.060;2023-01-23T11:17:58;1.40;99.90
4002;DHT22;2015;48.670;9.060;2023-01-23T11:20:39;1.40;99.90
4002;DHT22;2015;48.670;9.060;2023-01-23T11:23:14;1.40;99.90
4002;DHT22;2015;48.670;9.060;2023-01-23T11:25:48;1.40;99.90
4002;DHT22;2015;48.670;9.060;2023-01-23T11:31:04;1.40;99.90
4002;DHT22;2015;48.670;9.060;2023-01-23T11:41:59;1.30;99.90
4002;DHT22;2015;48.670;9.060;2023-01-23T11:44:32;1.30;99.90
4002;DHT22;2015;48.670;9.060;2023-01-23T11:47:50;1.20;99.90
4002;DHT22;2015;48.670;9.060;2023-01-23T11:53:21;1.20;99.90
4002;DHT22;2015;48.670;9.060;2023-01-23T12:05:06;1.10;99.90
4002;DHT22;2015;48.670;9.060;2023-01-23T12:16:18;1.10;99.90
4002;DHT22;2015;48.670;9.060;2023-01-23T12:27:42;1.30;99.90
4002;DHT22;2015;48.670;9.060;2023-01-23T12:39:12;1.50;99.90
4002;DHT22;2015;48.670;9.060;2023-01-23T12:41:50;1.60;99.90
4002;DHT22;2015;48.670;9.060;2023-01-23T12:44:32;1.70;99.90
4002;DHT22;2015;48.670;9.060;2023-01-23T12:47:11;1.70;99.90
4002;DHT22;2015;48.670;9.060;2023-01-23T12:49:54;1.80;99.90
4002;DHT22;2015;48.670;9.060;2023-01-23T12:52:52;1.90;99.90
4002;DHT22;2015;48.670;9.060;2023-01-23T12:58:16;2.00;99.90
4002;DHT22;2015;48.670;9.060;2023-01-23T13:04:07;1.80;99.90
4002;DHT22;2015;48.670;9.060;2023-01-23T13:09:46;1.90;99.90
4002;DHT22;2015;48.670;9.060;2023-01-23T13:12:22;1.90;99.90
4002;DHT22;2015;48.670;9.060;2023-01-23T13:18:24;1.70;99.90
4002;DHT22;2015;48.670;9.060;2023-01-23T13:20:59;1.60;99.90
4002;DHT22;2015;48.670;9.060;2023-01-23T13:27:39;1.50;99.90
4002;DHT22;2015;48.670;9.060;2023-01-23T13:52:39;1.70;99.90
4002;DHT22;2015;48.670;9.060;2023-01-23T13:55:45;1.70;99.90
4002;DHT22;2015;48.670;9.060;2023-01-23T13:58:50;1.80;99.90
4002;DHT22;2015;48.670;9.060;2023-01-23T14:05:26;1.70;99.90
4002;DHT22;2015;48.670;9.060;2023-01-23T14:08:21;1.70;99.90
4002;DHT22;2015;48.670;9.060;2023-01-23T14:11:13;1.60;99.90
4002;DHT22;2015;48.670;9.060;2023-01-23T14:14:00;1.60;99.90
4002;DHT22;2015;48.670;9.060;2023-01-23T14:17:06;1.60;99.90
4002;DHT22;2015;48.670;9.060;2023-01-23T14:19:54;1.60;99.90
4002;DHT22;2015;48.670;9.060;2023-01-23T14:22:42;1.70;99.90
4002;DHT22;2015;48.670;9.060;2023-01-23T14:25:17;1.70;99.90
4002;DHT22;2015;48.670;9.060;2023-01-23T14:28:01;1.70;99.90
4002;DHT22;2015;48.670;9.060;2023-01-23T14:30:33;1.60;99.90
4002;DHT22;2015;48.670;9.060;2023-01-23T14:33:16;1.60;99.90
4002;DHT22;2015;48.670;9.060;2023-01-23T14:35:48;1.60;99.90
4002;DHT22;2015;48.670;9.060;2023-01-23T14:38:42;1.60;99.90
4002;DHT22;2015;48.670;9.060;2023-01-23T14:41:14;1.60;99.90
4002;DHT22;2015;48.670;9.060;2023-01-23T14:43:47;1.60;99.90
4002;DHT22;2015;48.670;9.060;2023-01-23T14:46:26;1.60;99.90
4002;DHT22;2015;48.670;9.060;2023-01-23T14:49:01;1.60;99.90
4002;DHT22;2015;48.670;9.060;2023-01-23T14:51:34;1.60;99.90
4002;DHT22;2015;48.670;9.060;2023-01-23T14:54:17;1.60;99.90
4002;DHT22;2015;48.670;9.060;2023-01-23T14:56:54;1.60;99.90
4002;DHT22;2015;48.670;9.060;2023-01-23T14:59:36;1.60;99.90
4002;DHT22;2015;48.670;9.060;2023-01-23T15:02:31;1.60;99.90
4002;DHT22;2015;48.670;9.060;2023-01-23T15:05:27;1.60;99.90
4002;DHT22;2015;48.670;9.060;2023-01-23T15:08:17;1.60;99.90
4002;DHT22;2015;48.670;9.060;2023-01-23T15:10:52;1.60;99.90
4002;DHT22;2015;48.670;9.060;2023-01-23T15:13:27;1.60;99.90
4002;DHT22;2015;48.670;9.060;2023-01-23T15:16:02;1.60;99.90
4002;DHT22;2015;48.670;9.060;2023-01-23T15:18:35;1.60;99.90
4002;DHT22;2015;48.670;9.060;2023-01-23T15:21:07;1.60;99.90
4002;DHT22;2015;48.670;9.060;2023-01-23T15:23:40;1.60;99.90
4002;DHT22;2015;48.670;9.060;2023-01-23T15:41:55;1.60;99.90
4002;DHT22;2015;48.670;9.060;2023-01-23T15:44:29;1.60;99.90
4002;DHT22;2015;48.670;9.060;2023-01-23T15:47:08;1.60;99.90
4002;DHT22;2015;48.670;9.060;2023-01-23T15:49:40;1.60;99.90
4002;DHT22;2015;48.670;9.060;2023-01-23T15:52:56;1.60;99.90
4002;DHT22;2015;48.670;9.060;2023-01-23T15:55:28;1.60;99.90
4002;DHT22;2015;48.670;9.060;2023-01-23T15:58:00;1.50;99.90
4002;DHT22;2015;48.670;9.060;2023-01-23T16:00:33;1.50;99.90
4002;DHT22;2015;48.670;9.060;2023-01-23T16:03:05;1.50;99.90
4002;DHT22;2015;48.670;9.060;2023-01-23T16:05:37;1.50;99.90
4002;DHT22;2015;48.670;9.060;2023-01-23T16:08:18;1.50;99.90
4002;DHT22;2015;48.670;9.060;2023-01-23T16:10:50;1.50;99.90
4002;DHT22;2015;48.670;9.060;2023-01-23T16:13:22;1.50;99.90
4002;DHT22;2015;48.670;9.060;2023-01-23T16:15:54;1.50;99.90
4002;DHT22;2015;48.670;9.060;2023-01-23T16:18:26;1.50;99.90
4002;DHT22;2015;48.670;9.060;2023-01-23T16:20:58;1.50;99.90
4002;DHT22;2015;48.670;9.060;2023-01-23T16:23:30;1.50;99.90
4002;DHT22;2015;48.670;9.060;2023-01-23T16:26:19;1.50;99.90
4002;DHT22;2015;48.670;9.060;2023-01-23T16:28:51;1.50;99.90
4002;DHT22;2015;48.670;9.060;2023-01-23T16:31:27;1.50;99.90
4002;DHT22;2015;48.670;9.060;2023-01-23T16:33:59;1.50;99.90
4002;DHT22;2015;48.670;9.060;2023-01-23T16:36:31;1.40;99.90
4002;DHT22;2015;48.670;9.060;2023-01-23T16:39:03;1.40;99.90
4002;DHT22;2015;48.670;9.060;2023-01-23T16:41:36;1.40;99.90
4002;DHT22;2015;48.670;9.060;2023-01-23T16:44:11;1.40;99.90
4002;DHT22;2015;48.670;9.060;2023-01-23T16:46:48;1.40;99.90
4002;DHT22;2015;48.670;9.060;2023-01-23T16:49:20;1.40;99.90
4002;DHT22;2015;48.670;9.060;2023-01-23T16:51:59;1.40;99.90
4002;DHT22;2015;48.670;9.060;2023-01-23T16:54:32;1.40;99.90
4002;DHT22;2015;48.670;9.060;2023-01-23T16:57:05;1.40;99.90
4002;DHT22;2015;48.670;9.060;2023-01-23T16:59:38;1.30;99.90
4002;DHT22;2015;48.670;9.060;2023-01-23T17:02:25;1.30;99.90
4002;DHT22;2015;48.670;9.060;2023-01-23T17:04:58;1.30;99.90
4002;DHT22;2015;48.670;9.060;2023-01-23T17:07:30;1.30;99.90
4002;DHT22;2015;48.670;9.060;2023-01-23T17:10:01;1.30;99.90
4002;DHT22;2015;48.670;9.060;2023-01-23T17:12:34;1.30;99.90
4002;DHT22;2015;48.670;9.060;2023-01-23T17:15:08;1.30;99.90
4002;DHT22;2015;48.670;9.060;2023-01-23T17:17:41;1.30;99.90
4002;DHT22;2015;48.670;9.060;2023-01-23T17:20:16;1.30;99.90
4002;DHT22;2015;48.670;9.060;2023-01-23T17:22:48;1.30;99.90
4002;DHT22;2015;48.670;9.060;2023-01-23T17:25:22;1.40;99.90
4002;DHT22;2015;48.670;9.060;2023-01-23T17:27:54;1.30;99.90
4002;DHT22;2015;48.670;9.060;2023-01-23T17:30:44;1.40;99.90
4002;DHT22;2015;48.670;9.060;2023-01-23T17:35:52;1.40;99.90
4002;DHT22;2015;48.670;9.060;2023-01-23T17:38:26;1.40;99.90
4002;DHT22;2015;48.670;9.060;2023-01-23T17:41:01;1.40;99.90
4002;DHT22;2015;48.670;9.060;2023-01-23T17:43:35;1.40;99.90
4002;DHT22;2015;48.670;9.060;2023-01-23T17:46:07;1.40;99.90
4002;DHT22;2015;48.670;9.060;2023-01-23T17:48:39;1.40;99.90
4002;DHT22;2015;48.670;9.060;2023-01-23T17:51:18;1.40;99.90
4002;DHT22;2015;48.670;9.060;2023-01-23T17:53:50;1.30;99.90
4002;DHT22;2015;48.670;9.060;2023-01-23T17:56:22;1.30;99.90
4002;DHT22;2015;48.670;9.060;2023-01-23T17:58:54;1.30;99.90
4002;DHT22;2015;48.670;9.060;2023-01-23T18:01:26;1.30;99.90
4002;DHT22;2015;48.670;9.060;2023-01-23T18:03:58;1.30;99.90
4002;DHT22;2015;48.670;9.060;2023-01-23T18:06:30;1.30;99.90
4002;DHT22;2015;48.670;9.060;2023-01-23T18:09:01;1.30;99.90
4002;DHT22;2015;48.670;9.060;2023-01-23T18:11:34;1.30;99.90
4002;DHT22;2015;48.670;9.060;2023-01-23T18:14:44;1.30;99.90
4002;DHT22;2015;48.670;9.060;2023-01-23T18:19:58;1.30;99.90
4002;DHT22;2015;48.670;9.060;2023-01-23T18:22:31;1.30;99.90
4002;DHT22;2015;48.670;9.060;2023-01-23T18:25:03;1.30;99.90
4002;DHT22;2015;48.670;9.060;2023-01-23T18:27:37;1.30;99.90
4002;DHT22;2015;48.670;9.060;2023-01-23T18:30:33;1.30;99.90
4002;DHT22;2015;48.670;9.060;2023-01-23T18:36:04;1.30;99.90
4002;DHT22;2015;48.670;9.060;2023-01-23T18:42:31;1.40;99.90
4002;DHT22;2015;48.670;9.060;2023-01-23T18:44:45;1.40;99.90
4002;DHT22;2015;48.670;9.060;2023-01-23T18:47:18;1.40;99.90
4002;DHT22;2015;48.670;9.060;2023-01-23T18:49:51;1.40;99.90
4002;DHT22;2015;48.670;9.060;2023-01-23T18:52:35;1.40;99.90
4002;DHT22;2015;48.670;9.060;2023-01-23T19:01:47;1.40;99.90
4002;DHT22;2015;48.670;9.060;2023-01-23T19:04:17;1.30;99.90
4002;DHT22;2015;48.670;9.060;2023-01-23T19:06:49;1.30;99.90
4002;DHT22;2015;48.670;9.060;2023-01-23T19:09:22;1.30;99.90
4002;DHT22;2015;48.670;9.060;2023-01-23T19:15:17;1.30;99.90
4002;DHT22;2015;48.670;9.060;2023-01-23T19:26:01;1.40;99.90
4002;DHT22;2015;48.670;9.060;2023-01-23T19:28:33;1.40;99.90
4002;DHT22;2015;48.670;9.060;2023-01-23T19:31:06;1.40;99.90
4002;DHT22;2015;48.670;9.060;2023-01-23T19:33:41;1.40;99.90
4002;DHT22;2015;48.670;9.060;2023-01-23T19:36:13;1.40;99.90
4002;DHT22;2015;48.670;9.060;2023-01-23T19:38:45;1.50;99.90
4002;DHT22;2015;48.670;9.060;2023-01-23T19:41:20;1.50;99.90
4002;DHT22;2015;48.670;9.060;2023-01-23T19:43:56;1.50;99.90
4002;DHT22;2015;48.670;9.060;2023-01-23T19:46:31;1.50;99.90
4002;DHT22;2015;48.670;9.060;2023-01-23T19:49:03;1.50;99.90
4002;DHT22;2015;48.670;9.060;2023-01-23T19:51:36;1.60;99.90
4002;DHT22;2015;48.670;9.060;2023-01-23T19:54:12;1.60;99.90
4002;DHT22;2015;48.670;9.060;2023-01-23T19:56:44;1.60;99.90
4002;DHT22;2015;48.670;9.060;2023-01-23T19:59:15;1.60;99.90
4002;DHT22;2015;48.670;9.060;2023-01-23T20:01:49;1.60;99.90